Time;durP1;ratioP1;P1;durP2;ratioP2;P2;SDS_P1;SDS_P2;PMS_P1;PMS_P2;Temp;Humidity;BMP_temperature;BMP_pressure;BME280_temperature;BME280_humidity;BME280_pressure;Samples;Min_cycle;Max_cycle;Signal;HPM_P1;HPM_P2
2022/01/23 00:00:05;;;;;;;;;;;13.90;98.10;;;;;;5155124;27;19936;-60
2022/01/23 00:02:33;;;;;;;;;;;13.80;98.00;;;;;;5160302;27;20010;-60
2022/01/23 00:05:05;;;;;;;;;;;13.60;98.00;;;;;;5170604;27;20367;-66
2022/01/23 00:07:32;;;;;;;;;;;13.60;98.00;;;;;;5175395;27;19923;-64
2022/01/23 00:09:57;;;;;;;;;;;13.80;97.90;;;;;;5164908;27;19944;-60
2022/01/23 00:12:25;;;;;;;;;;;13.70;97.90;;;;;;5163159;27;19927;-61
2022/01/23 00:17:36;;;;;;;;;;;13.90;98.00;;;;;;5155467;27;20372;-59
2022/01/23 00:20:02;;;;;;;;;;;;;;;;;;5171302;27;19930;-63
2022/01/23 00:22:36;;;;;;;;;;;13.40;97.80;;;;;;5163285;27;20379;-62
2022/01/23 00:30:32;;;;;;;;;;;;;;;;;;5176900;27;20388;-63
2022/01/23 00:32:59;;;;;;;;;;;13.70;97.80;;;;;;5179063;27;20276;-60
2022/01/23 00:35:25;;;;;;;;;;;13.70;97.70;;;;;;5177403;27;19988;-60
2022/01/23 00:37:50;;;;;;;;;;;13.60;97.70;;;;;;5162768;27;19922;-60
2022/01/23 00:40:16;;;;;;;;;;;13.60;97.70;;;;;;5171922;27;19923;-60
2022/01/23 00:42:42;;;;;;;;;;;13.60;97.60;;;;;;5170015;27;19927;-60
2022/01/23 00:47:34;;;;;;;;;;;13.40;97.60;;;;;;5162129;27;20475;-60
2022/01/23 00:50:00;;;;;;;;;;;13.50;97.50;;;;;;5162064;27;20030;-60
2022/01/23 00:52:25;;;;;;;;;;;13.50;97.50;;;;;;5176538;27;20286;-60
2022/01/23 00:54:51;;;;;;;;;;;;;;;;;;5162164;27;19923;-65
2022/01/23 00:57:17;;;;;;;;;;;13.30;97.50;;;;;;5179606;27;20336;-60
2022/01/23 00:59:42;;;;;;;;;;;13.70;97.50;;;;;;5181547;27;19926;-61
2022/01/23 01:02:08;;;;;;;;;;;13.50;97.50;;;;;;5183303;27;20375;-61
2022/01/23 01:04:34;;;;;;;;;;;13.90;97.60;;;;;;5151997;27;19922;-61
2022/01/23 01:06:59;;;;;;;;;;;13.50;97.40;;;;;;5142603;27;20010;-66
2022/01/23 01:09:25;;;;;;;;;;;;;;;;;;5165327;27;19927;-67
2022/01/23 01:14:32;;;;;;;;;;;13.70;97.50;;;;;;5170674;27;19923;-67
2022/01/23 01:33:16;;;;;;;;;;;13.70;97.40;;;;;;5161134;27;19934;-66
2022/01/23 01:35:47;;;;;;;;;;;13.60;97.40;;;;;;5157644;27;19953;-66
2022/01/23 01:38:13;;;;;;;;;;;13.60;97.40;;;;;;5158885;27;20025;-67
2022/01/23 01:40:39;;;;;;;;;;;13.70;97.40;;;;;;5169553;27;20014;-66
2022/01/23 01:43:04;;;;;;;;;;;13.70;97.40;;;;;;5176402;27;19923;-66
2022/01/23 01:45:31;;;;;;;;;;;13.50;97.30;;;;;;5158224;27;19938;-66
2022/01/23 01:47:59;;;;;;;;;;;13.80;97.40;;;;;;5179915;27;20312;-66
2022/01/23 01:50:25;;;;;;;;;;;13.60;97.30;;;;;;5152341;27;19930;-66
2022/01/23 01:52:50;;;;;;;;;;;13.50;97.30;;;;;;5158791;27;20009;-67
2022/01/23 01:55:22;;;;;;;;;;;13.70;97.30;;;;;;5157969;27;19923;-67
2022/01/23 01:57:53;;;;;;;;;;;13.50;97.30;;;;;;5157962;27;19973;-67
2022/01/23 02:08:29;;;;;;;;;;;13.50;97.20;;;;;;5178731;27;19922;-67
2022/01/23 02:11:01;;;;;;;;;;;13.50;97.20;;;;;;5169678;27;20260;-61
2022/01/23 02:13:34;;;;;;;;;;;13.70;97.20;;;;;;5156845;27;20397;-62
2022/01/23 02:16:36;;;;;;;;;;;13.80;97.30;;;;;;5174184;27;19985;-61
2022/01/23 02:24:46;;;;;;;;;;;13.40;97.10;;;;;;5157484;27;20388;-61
2022/01/23 02:54:21;;;;;;;;;;;13.60;97.10;;;;;;5162055;27;19923;-60
2022/01/23 02:56:53;;;;;;;;;;;13.60;97.10;;;;;;5178074;27;19969;-60
2022/01/23 02:59:28;;;;;;;;;;;13.60;97.10;;;;;;5166884;27;20332;-61
2022/01/23 03:04:25;;;;;;;;;;;13.50;97.00;;;;;;5171729;27;19978;-62
2022/01/23 03:14:53;;;;;;;;;;;13.90;97.10;;;;;;5158233;27;19919;-60
2022/01/23 03:26:09;;;;;;;;;;;13.60;97.00;;;;;;5162114;27;20018;-62
2022/01/23 03:28:36;;;;;;;;;;;13.40;96.90;;;;;;5164565;27;20360;-60
2022/01/23 03:31:21;;;;;;;;;;;13.50;97.00;;;;;;5177003;27;19925;-63
2022/01/23 03:33:46;;;;;;;;;;;13.40;97.00;;;;;;5162286;27;19930;-61
2022/01/23 03:36:12;;;;;;;;;;;13.40;96.90;;;;;;5156417;27;20006;-61
2022/01/23 03:38:37;;;;;;;;;;;13.80;97.00;;;;;;5155440;27;20317;-62
2022/01/23 03:41:03;;;;;;;;;;;13.70;97.00;;;;;;5163925;27;19926;-61
2022/01/23 03:43:32;;;;;;;;;;;13.60;97.00;;;;;;5161790;27;19923;-60
2022/01/23 03:51:08;;;;;;;;;;;13.50;96.90;;;;;;5157240;27;20490;-62
2022/01/23 03:53:33;;;;;;;;;;;13.40;96.90;;;;;;5156108;27;19929;-61
2022/01/23 03:55:59;;;;;;;;;;;13.40;96.90;;;;;;5157154;27;19942;-60
2022/01/23 03:58:24;;;;;;;;;;;13.60;97.00;;;;;;5176851;27;20344;-61
2022/01/23 04:00:50;;;;;;;;;;;13.50;96.90;;;;;;5157883;27;20014;-61
2022/01/23 04:03:18;;;;;;;;;;;13.40;96.90;;;;;;5139754;27;19923;-63
2022/01/23 04:05:44;;;;;;;;;;;13.60;97.00;;;;;;5155946;27;19927;-62
2022/01/23 04:08:10;;;;;;;;;;;13.50;97.00;;;;;;5171036;27;19930;-63
2022/01/23 04:10:36;;;;;;;;;;;13.60;96.80;;;;;;5164502;27;20017;-61
2022/01/23 04:13:42;;;;;;;;;;;13.50;97.00;;;;;;5165747;27;19922;-62
2022/01/23 04:16:12;;;;;;;;;;;13.30;96.90;;;;;;5153559;27;19927;-60
2022/01/23 04:46:03;;;;;;;;;;;13.40;96.80;;;;;;5156036;27;20018;-61
2022/01/23 04:59:46;;;;;;;;;;;13.50;96.80;;;;;;5161509;27;19923;-60
2022/01/23 05:04:41;;;;;;;;;;;13.60;96.80;;;;;;5160193;27;19918;-63
2022/01/23 05:07:12;;;;;;;;;;;13.60;96.80;;;;;;5172225;27;19930;-61
2022/01/23 05:09:38;;;;;;;;;;;13.60;96.80;;;;;;5162360;27;19930;-62
2022/01/23 05:12:04;;;;;;;;;;;13.70;96.80;;;;;;5163794;27;19924;-62
2022/01/23 05:14:33;;;;;;;;;;;13.40;96.70;;;;;;5159074;27;19925;-64
2022/01/23 05:16:59;;;;;;;;;;;13.50;96.70;;;;;;5175302;27;19929;-62
2022/01/23 05:19:25;;;;;;;;;;;13.90;96.90;;;;;;5158912;27;19923;-63
2022/01/23 05:24:24;;;;;;;;;;;13.50;96.70;;;;;;5159607;27;19946;-64
2022/01/23 05:26:49;;;;;;;;;;;13.60;96.80;;;;;;5157889;27;20380;-59
2022/01/23 05:29:15;;;;;;;;;;;13.30;96.70;;;;;;5158891;27;19923;-59
2022/01/23 05:31:41;;;;;;;;;;;13.50;96.70;;;;;;5164883;27;19919;-60
2022/01/23 05:34:06;;;;;;;;;;;13.60;96.70;;;;;;5158498;27;19922;-59
2022/01/23 05:36:32;;;;;;;;;;;;;;;;;;5158216;27;19930;-60
2022/01/23 05:38:58;;;;;;;;;;;;;;;;;;5176160;27;20416;-61
2022/01/23 05:41:25;;;;;;;;;;;13.20;96.50;;;;;;5160301;27;20056;-59
2022/01/23 05:43:50;;;;;;;;;;;13.40;96.60;;;;;;5161621;27;19934;-59
2022/01/23 05:46:16;;;;;;;;;;;13.50;96.70;;;;;;5162019;27;19923;-60
2022/01/23 05:48:42;;;;;;;;;;;13.40;96.60;;;;;;5162986;27;19929;-59
2022/01/23 05:51:12;;;;;;;;;;;;;;;;;;5159087;27;19923;-60
2022/01/23 05:53:40;;;;;;;;;;;13.50;96.70;;;;;;5169248;27;19937;-59
2022/01/23 05:56:06;;;;;;;;;;;13.50;96.70;;;;;;5158247;27;19919;-59
2022/01/23 05:58:31;;;;;;;;;;;13.40;96.70;;;;;;5158308;27;19976;-59
2022/01/23 06:00:57;;;;;;;;;;;13.50;96.70;;;;;;5158278;27;20384;-60
2022/01/23 06:03:23;;;;;;;;;;;13.50;96.60;;;;;;5164694;27;19923;-60
2022/01/23 06:05:48;;;;;;;;;;;13.50;96.70;;;;;;5179113;27;19923;-59
2022/01/23 06:08:14;;;;;;;;;;;13.30;96.60;;;;;;5158695;27;20008;-59
2022/01/23 06:10:58;;;;;;;;;;;13.30;96.60;;;;;;5178671;27;19974;-59
2022/01/23 06:13:24;;;;;;;;;;;13.50;96.60;;;;;;5157538;27;19927;-59
2022/01/23 06:15:50;;;;;;;;;;;13.20;96.50;;;;;;5170428;27;19974;-59
2022/01/23 06:18:16;;;;;;;;;;;;;;;;;;5162796;27;19970;-60
2022/01/23 06:20:42;;;;;;;;;;;13.20;96.60;;;;;;5157593;27;19982;-60
2022/01/23 06:23:07;;;;;;;;;;;13.30;96.60;;;;;;5157119;27;19931;-59
2022/01/23 06:25:35;;;;;;;;;;;13.20;96.50;;;;;;5169284;27;20029;-59
2022/01/23 06:28:02;;;;;;;;;;;13.50;96.60;;;;;;5178684;27;20340;-59
2022/01/23 06:30:27;;;;;;;;;;;13.30;96.60;;;;;;5151062;27;19923;-59
2022/01/23 06:32:53;;;;;;;;;;;13.40;96.60;;;;;;5157882;27;20356;-59
2022/01/23 06:35:19;;;;;;;;;;;13.40;96.50;;;;;;5156359;27;19930;-60
2022/01/23 06:37:44;;;;;;;;;;;13.40;96.50;;;;;;5155790;27;19929;-59
2022/01/23 06:40:10;;;;;;;;;;;13.10;96.40;;;;;;5155930;27;20391;-59
2022/01/23 06:42:36;;;;;;;;;;;;;;;;;;5155002;27;19970;-62
2022/01/23 06:45:02;;;;;;;;;;;13.20;96.40;;;;;;5156148;27;19926;-60
2022/01/23 06:47:27;;;;;;;;;;;13.20;96.40;;;;;;5163953;27;20384;-59
2022/01/23 06:49:53;;;;;;;;;;;13.50;96.50;;;;;;5156317;27;19975;-59
2022/01/23 06:52:19;;;;;;;;;;;13.30;96.50;;;;;;5137247;27;19923;-60
2022/01/23 06:54:45;;;;;;;;;;;;;;;;;;5154779;27;19937;-60
2022/01/23 06:57:10;;;;;;;;;;;13.30;96.50;;;;;;5157278;27;19926;-60
2022/01/23 06:59:36;;;;;;;;;;;13.20;96.40;;;;;;5155131;27;19923;-60
2022/01/23 07:02:03;;;;;;;;;;;13.30;96.50;;;;;;5155025;27;19939;-60
2022/01/23 07:04:29;;;;;;;;;;;13.10;96.50;;;;;;5155239;27;19930;-60
2022/01/23 07:06:54;;;;;;;;;;;13.20;96.40;;;;;;5142274;27;19923;-61
2022/01/23 07:09:20;;;;;;;;;;;13.20;96.40;;;;;;5155739;27;20391;-61
2022/01/23 07:11:46;;;;;;;;;;;13.30;96.40;;;;;;5158026;27;19923;-61
2022/01/23 07:14:11;;;;;;;;;;;13.10;96.40;;;;;;5155330;27;19938;-65
2022/01/23 07:16:37;;;;;;;;;;;13.10;96.40;;;;;;5155022;27;19930;-63
2022/01/23 07:19:03;;;;;;;;;;;13.10;96.40;;;;;;5170559;27;19933;-64
2022/01/23 07:21:28;;;;;;;;;;;13.30;96.50;;;;;;5167163;27;19929;-62
2022/01/23 07:23:54;;;;;;;;;;;13.20;96.40;;;;;;5165474;27;20088;-63
2022/01/23 07:26:22;;;;;;;;;;;13.10;96.40;;;;;;5139163;27;19950;-61
2022/01/23 07:28:48;;;;;;;;;;;13.20;96.40;;;;;;5158937;27;19938;-62
2022/01/23 07:31:31;;;;;;;;;;;13.30;96.40;;;;;;5153750;27;20043;-64
2022/01/23 07:33:58;;;;;;;;;;;13.30;96.30;;;;;;5159062;27;19922;-64
2022/01/23 07:36:24;;;;;;;;;;;;;;;;;;5155419;27;19927;-65
2022/01/23 07:38:49;;;;;;;;;;;13.30;96.00;;;;;;5154508;27;19937;-66
2022/01/23 07:41:15;;;;;;;;;;;13.20;96.30;;;;;;5155390;27;19923;-65
2022/01/23 07:43:40;;;;;;;;;;;13.20;96.30;;;;;;5155922;27;20350;-63
2022/01/23 07:46:06;;;;;;;;;;;13.30;96.30;;;;;;5153581;27;19923;-65
2022/01/23 07:48:32;;;;;;;;;;;13.30;96.30;;;;;;5153811;27;19933;-65
2022/01/23 07:50:57;;;;;;;;;;;13.30;96.30;;;;;;5154387;27;19966;-62
2022/01/23 07:53:23;;;;;;;;;;;;;;;;;;5161165;27;19927;-60
2022/01/23 07:55:49;;;;;;;;;;;13.30;96.30;;;;;;5160694;27;19931;-59
2022/01/23 07:58:15;;;;;;;;;;;13.40;96.30;;;;;;5160344;27;19991;-62
2022/01/23 08:00:41;;;;;;;;;;;13.50;96.30;;;;;;5153627;27;20428;-60
2022/01/23 08:03:07;;;;;;;;;;;13.30;96.20;;;;;;5154132;27;19924;-59
2022/01/23 08:05:33;;;;;;;;;;;;;;;;;;5153310;27;19927;-64
2022/01/23 08:07:58;;;;;;;;;;;13.50;96.30;;;;;;5154099;27;20097;-65
2022/01/23 08:10:24;;;;;;;;;;;13.20;96.30;;;;;;5154227;27;19923;-64
2022/01/23 08:12:49;;;;;;;;;;;13.40;96.20;;;;;;5154598;27;19931;-63
2022/01/23 08:15:15;;;;;;;;;;;13.20;96.20;;;;;;5163166;27;20300;-61
2022/01/23 08:17:41;;;;;;;;;;;13.20;96.20;;;;;;5161592;27;19922;-62
2022/01/23 08:20:08;;;;;;;;;;;13.40;96.20;;;;;;5171431;27;19927;-60
2022/01/23 08:22:34;;;;;;;;;;;13.60;96.30;;;;;;5151732;27;19930;-60
2022/01/23 08:25:02;;;;;;;;;;;13.20;96.20;;;;;;5166518;27;19930;-65
2022/01/23 08:27:28;;;;;;;;;;;13.30;96.20;;;;;;5153976;27;19976;-65
2022/01/23 08:29:53;;;;;;;;;;;13.40;96.20;;;;;;5153406;27;19927;-62
2022/01/23 08:32:20;;;;;;;;;;;;;;;;;;5157963;27;20375;-61
2022/01/23 08:34:45;;;;;;;;;;;13.60;96.20;;;;;;5145588;27;19923;-65
2022/01/23 08:37:11;;;;;;;;;;;13.50;96.20;;;;;;5166757;27;19968;-62
2022/01/23 08:39:37;;;;;;;;;;;13.40;96.20;;;;;;5165563;27;20367;-62
2022/01/23 08:42:08;;;;;;;;;;;13.50;96.20;;;;;;5166743;27;20432;-63
2022/01/23 08:44:33;;;;;;;;;;;13.60;96.20;;;;;;5167989;27;19950;-63
2022/01/23 08:46:59;;;;;;;;;;;;;;;;;;5163333;27;19923;-65
2022/01/23 08:49:25;;;;;;;;;;;13.50;96.20;;;;;;5173145;27;20332;-64
2022/01/23 08:51:51;;;;;;;;;;;13.60;96.20;;;;;;5166987;27;20005;-62
2022/01/23 08:54:17;;;;;;;;;;;13.50;96.10;;;;;;5162598;27;19937;-66
2022/01/23 08:56:42;;;;;;;;;;;13.40;96.10;;;;;;5173570;27;20404;-62
2022/01/23 08:59:08;;;;;;;;;;;13.40;96.10;;;;;;5167924;27;20036;-60
2022/01/23 09:01:34;;;;;;;;;;;13.60;96.20;;;;;;5179106;27;20298;-61
2022/01/23 09:03:59;;;;;;;;;;;13.70;96.20;;;;;;5169904;27;19923;-64
2022/01/23 09:06:25;;;;;;;;;;;13.50;96.10;;;;;;5164564;27;19929;-65
2022/01/23 09:08:52;;;;;;;;;;;13.40;96.00;;;;;;5164370;27;19923;-65
2022/01/23 09:16:30;;;;;;;;;;;13.50;96.10;;;;;;5166642;27;19918;-61
2022/01/23 09:18:56;;;;;;;;;;;13.70;96.10;;;;;;5162613;27;19929;-62
2022/01/23 09:21:21;;;;;;;;;;;13.40;96.00;;;;;;5169081;27;20014;-62
2022/01/23 09:23:47;;;;;;;;;;;13.70;96.10;;;;;;5164848;27;20470;-60
2022/01/23 09:26:16;;;;;;;;;;;13.60;96.10;;;;;;5159712;27;19927;-59
2022/01/23 09:28:44;;;;;;;;;;;13.30;96.00;;;;;;5170309;27;19929;-60
2022/01/23 09:31:12;;;;;;;;;;;13.70;96.10;;;;;;5144554;27;20312;-60
2022/01/23 09:33:37;;;;;;;;;;;13.50;95.80;;;;;;5169004;27;20018;-60
2022/01/23 09:36:03;;;;;;;;;;;13.60;96.10;;;;;;5170125;27;20394;-61
2022/01/23 09:38:29;;;;;;;;;;;13.60;96.10;;;;;;5141882;27;20252;-61
2022/01/23 09:40:55;;;;;;;;;;;13.70;96.10;;;;;;5171186;27;19922;-59
2022/01/23 09:43:22;;;;;;;;;;;13.60;96.10;;;;;;5151748;27;19930;-61
2022/01/23 09:45:48;;;;;;;;;;;13.80;96.10;;;;;;5160309;27;20018;-60
2022/01/23 09:48:14;;;;;;;;;;;13.70;96.00;;;;;;5162055;27;19923;-60
2022/01/23 09:50:39;;;;;;;;;;;13.90;96.10;;;;;;5158613;27;19930;-64
2022/01/23 09:53:05;;;;;;;;;;;14.00;96.00;;;;;;5143310;27;20398;-59
2022/01/23 09:55:31;;;;;;;;;;;13.80;95.70;;;;;;5159290;27;19970;-62
2022/01/23 09:57:57;;;;;;;;;;;13.90;96.00;;;;;;5170449;27;19967;-61
2022/01/23 10:00:26;;;;;;;;;;;13.90;96.00;;;;;;5167730;27;20388;-60
2022/01/23 10:02:52;;;;;;;;;;;13.80;95.90;;;;;;5169330;27;19930;-59
2022/01/23 10:05:18;;;;;;;;;;;14.00;96.00;;;;;;5168605;27;19971;-59
2022/01/23 10:07:43;;;;;;;;;;;13.70;95.90;;;;;;5165524;27;20367;-67
2022/01/23 10:10:16;;;;;;;;;;;13.90;95.90;;;;;;5162019;27;19925;-60
2022/01/23 10:12:50;;;;;;;;;;;13.80;95.90;;;;;;5176107;27;20017;-62
2022/01/23 10:15:16;;;;;;;;;;;13.90;95.90;;;;;;5168494;27;19926;-60
2022/01/23 10:17:42;;;;;;;;;;;;;;;;;;5176692;27;19923;-64
2022/01/23 10:20:08;;;;;;;;;;;14.00;95.90;;;;;;5165460;27;19975;-59
2022/01/23 10:22:35;;;;;;;;;;;14.00;95.90;;;;;;5148806;27;19927;-60
2022/01/23 10:25:04;;;;;;;;;;;14.10;95.80;;;;;;5164471;27;20324;-61
2022/01/23 10:27:33;;;;;;;;;;;13.90;95.50;;;;;;5158898;27;19923;-65
2022/01/23 10:29:59;;;;;;;;;;;14.10;95.80;;;;;;5143281;27;19935;-64
2022/01/23 10:32:25;;;;;;;;;;;13.90;95.80;;;;;;5141925;27;19926;-61
2022/01/23 10:34:55;;;;;;;;;;;13.90;95.80;;;;;;5173372;27;19923;-60
2022/01/23 10:37:23;;;;;;;;;;;13.90;95.70;;;;;;5166736;27;19922;-60
2022/01/23 10:39:49;;;;;;;;;;;14.10;95.80;;;;;;5160578;27;20402;-60
2022/01/23 10:42:50;;;;;;;;;;;14.10;95.50;;;;;;5165670;27;19931;-60
2022/01/23 10:48:35;;;;;;;;;;;13.90;95.70;;;;;;5159930;27;19926;-60
2022/01/23 10:50:52;;;;;;;;;;;;;;;;;;5160451;27;19923;-61
2022/01/23 10:53:18;;;;;;;;;;;14.10;95.70;;;;;;5157958;27;19942;-66
2022/01/23 10:55:44;;;;;;;;;;;14.10;95.70;;;;;;5157091;27;19926;-66
2022/01/23 10:58:20;;;;;;;;;;;14.10;95.60;;;;;;5165928;27;19958;-66
2022/01/23 11:00:45;;;;;;;;;;;14.40;95.70;;;;;;5159673;27;19923;-66
2022/01/23 11:03:21;;;;;;;;;;;14.10;95.70;;;;;;5162990;27;19929;-67
2022/01/23 11:05:48;;;;;;;;;;;14.00;95.60;;;;;;5143958;27;19930;-66
2022/01/23 11:08:17;;;;;;;;;;;14.10;95.60;;;;;;5166724;27;19923;-67
2022/01/23 11:10:55;;;;;;;;;;;14.30;95.70;;;;;;5161825;27;20303;-66
2022/01/23 11:19:18;;;;;;;;;;;14.10;95.70;;;;;;5163874;27;19948;-66
2022/01/23 11:21:44;;;;;;;;;;;14.30;95.60;;;;;;5159256;27;19969;-66
2022/01/23 11:24:10;;;;;;;;;;;14.40;95.70;;;;;;5157354;27;19919;-66
2022/01/23 11:26:36;;;;;;;;;;;14.00;95.50;;;;;;5152111;27;19923;-67
2022/01/23 11:29:12;;;;;;;;;;;14.10;95.60;;;;;;5162593;27;19930;-66
2022/01/23 11:31:39;;;;;;;;;;;14.40;95.60;;;;;;5164395;27;20357;-66
2022/01/23 11:34:06;;;;;;;;;;;14.50;95.70;;;;;;5166022;27;19923;-67
2022/01/23 11:36:31;;;;;;;;;;;14.30;95.60;;;;;;5163181;27;19926;-66
2022/01/23 11:39:04;;;;;;;;;;;14.20;95.50;;;;;;5161822;27;19927;-66
2022/01/23 11:55:42;;;;;;;;;;;14.20;95.50;;;;;;5084251;28;20298;-61
2022/01/23 11:58:08;;;;;;;;;;;14.40;95.50;;;;;;5079557;28;19932;-67
2022/01/23 12:00:35;;;;;;;;;;;14.50;95.60;;;;;;5061416;28;20431;-67
2022/01/23 12:03:14;;;;;;;;;;;14.40;95.60;;;;;;5085000;28;20336;-67
2022/01/23 12:05:42;;;;;;;;;;;14.40;95.60;;;;;;5076297;28;19924;-67
2022/01/23 12:08:21;;;;;;;;;;;14.50;95.60;;;;;;5086608;28;19924;-66
2022/01/23 12:16:21;;;;;;;;;;;14.40;95.50;;;;;;5044279;28;20047;-66
2022/01/23 12:16:34;;;;;;;;;;;;;;;;;;5042346;28;20032;-66
2022/01/23 12:19:00;;;;;;;;;;;;;;;;;;5046251;28;19971;-67
2022/01/23 12:21:29;;;;;;;;;;;14.30;95.50;;;;;;5086693;28;20299;-67
2022/01/23 12:23:57;;;;;;;;;;;14.20;95.50;;;;;;5129815;28;20431;-62
2022/01/23 12:26:23;;;;;;;;;;;14.00;95.50;;;;;;5132512;28;19934;-64
2022/01/23 12:28:49;;;;;;;;;;;14.40;95.20;;;;;;5121068;28;19923;-62
2022/01/23 12:31:14;;;;;;;;;;;14.50;95.60;;;;;;5125968;28;19920;-65
2022/01/23 12:33:40;;;;;;;;;;;14.20;95.60;;;;;;5121773;28;20396;-65
2022/01/23 12:36:26;;;;;;;;;;;14.30;95.60;;;;;;5122592;28;19935;-66
2022/01/23 12:38:53;;;;;;;;;;;;;;;;;;5112149;28;19927;-66
2022/01/23 12:41:23;;;;;;;;;;;14.20;95.50;;;;;;5113187;28;19923;-67
2022/01/23 12:43:49;;;;;;;;;;;;;;;;;;5110649;28;19953;-66
2022/01/23 12:46:27;;;;;;;;;;;14.20;95.60;;;;;;5127330;28;20064;-66
2022/01/23 12:48:53;;;;;;;;;;;14.30;95.60;;;;;;5125483;27;19922;-66
2022/01/23 12:51:19;;;;;;;;;;;14.10;95.50;;;;;;5165163;27;20282;-65
2022/01/23 12:53:47;;;;;;;;;;;14.20;95.60;;;;;;5145020;27;19958;-66
2022/01/23 12:56:14;;;;;;;;;;;14.10;95.60;;;;;;5163157;27;19926;-64
2022/01/23 12:58:40;;;;;;;;;;;14.10;95.60;;;;;;5169547;27;19919;-65
2022/01/23 13:01:07;;;;;;;;;;;13.90;95.60;;;;;;5166252;27;19923;-65
2022/01/23 13:03:33;;;;;;;;;;;14.00;95.60;;;;;;5167692;27;20307;-65
2022/01/23 13:05:59;;;;;;;;;;;;;;;;;;5166031;27;19923;-62
2022/01/23 13:08:29;;;;;;;;;;;14.00;95.60;;;;;;5175046;27;20370;-65
2022/01/23 13:13:39;;;;;;;;;;;;;;;;;;5147850;27;19923;-65
2022/01/23 13:18:44;;;;;;;;;;;14.10;95.60;;;;;;5162686;27;20003;-65
2022/01/23 13:32:40;;;;;;;;;;;13.90;95.50;;;;;;5085534;28;19928;-65
2022/01/23 13:35:09;;;;;;;;;;;;;;;;;;5086242;28;20294;-64
2022/01/23 13:37:37;;;;;;;;;;;14.00;95.60;;;;;;5089716;28;20019;-60
2022/01/23 13:40:10;;;;;;;;;;;14.00;95.60;;;;;;5093703;28;20385;-61
2022/01/23 14:04:27;;;;;;;;;;;14.00;95.10;;;;;;5077912;28;19924;-61
2022/01/23 14:06:53;;;;;;;;;;;14.40;95.20;;;;;;5136685;27;19934;-63
2022/01/23 14:09:19;;;;;;;;;;;14.10;95.10;;;;;;5150200;27;20283;-63
2022/01/23 14:11:45;;;;;;;;;;;14.20;95.10;;;;;;5160320;27;19923;-64
2022/01/23 14:14:10;;;;;;;;;;;14.20;95.10;;;;;;5173810;27;19983;-65
2022/01/23 14:16:36;;;;;;;;;;;14.10;95.00;;;;;;5174733;27;19931;-62
2022/01/23 14:19:12;;;;;;;;;;;14.00;94.90;;;;;;5157572;27;20397;-59
2022/01/23 14:21:40;;;;;;;;;;;14.10;94.90;;;;;;5173058;27;19993;-63
2022/01/23 14:24:06;;;;;;;;;;;13.90;94.80;;;;;;5169366;27;19923;-64
2022/01/23 14:26:32;;;;;;;;;;;14.00;94.90;;;;;;5166857;27;20435;-63
2022/01/23 14:29:02;;;;;;;;;;;14.10;94.90;;;;;;5168389;27;19967;-66
2022/01/23 14:31:36;;;;;;;;;;;13.90;94.90;;;;;;5159853;27;19996;-66
2022/01/23 14:34:04;;;;;;;;;;;13.80;94.90;;;;;;5172253;27;20288;-66
2022/01/23 14:36:31;;;;;;;;;;;14.10;94.90;;;;;;5173073;27;19967;-66
2022/01/23 14:38:57;;;;;;;;;;;14.20;95.00;;;;;;5169419;27;19926;-67
2022/01/23 14:41:24;;;;;;;;;;;13.90;94.90;;;;;;5164670;27;19931;-66
2022/01/23 14:43:49;;;;;;;;;;;13.90;94.90;;;;;;5167992;27;19931;-66
2022/01/23 14:46:15;;;;;;;;;;;14.20;95.00;;;;;;5169484;27;19929;-66
2022/01/23 14:48:45;;;;;;;;;;;14.10;95.00;;;;;;5160020;27;19923;-66
2022/01/23 14:51:12;;;;;;;;;;;13.80;94.90;;;;;;5161958;27;20287;-65
2022/01/23 14:53:38;;;;;;;;;;;;;;;;;;5170766;27;19929;-67
2022/01/23 14:56:04;;;;;;;;;;;14.10;95.00;;;;;;5172069;27;19975;-66
2022/01/23 14:58:30;;;;;;;;;;;;;;;;;;5162059;27;20279;-66
2022/01/23 15:00:56;;;;;;;;;;;13.80;95.00;;;;;;5164498;27;20268;-66
2022/01/23 15:03:22;;;;;;;;;;;13.90;95.00;;;;;;5159316;27;19927;-66
2022/01/23 15:05:48;;;;;;;;;;;14.20;95.10;;;;;;5165490;27;20256;-66
2022/01/23 15:08:13;;;;;;;;;;;14.00;95.10;;;;;;5144814;27;20391;-66
2022/01/23 15:10:41;;;;;;;;;;;13.80;95.10;;;;;;5147074;27;19923;-66
2022/01/23 15:13:08;;;;;;;;;;;14.00;95.10;;;;;;5164562;27;19931;-66
2022/01/23 15:15:34;;;;;;;;;;;;;;;;;;5156525;27;19930;-66
2022/01/23 15:18:00;;;;;;;;;;;13.80;95.10;;;;;;5176385;27;19923;-66
2022/01/23 15:20:26;;;;;;;;;;;13.80;95.10;;;;;;5161442;27;20010;-66
2022/01/23 15:22:52;;;;;;;;;;;;;;;;;;5166438;27;19997;-66
2022/01/23 15:25:19;;;;;;;;;;;14.10;95.20;;;;;;5168256;27;20017;-66
2022/01/23 15:27:44;;;;;;;;;;;14.10;95.30;;;;;;5167412;27;19927;-66
2022/01/23 15:30:11;;;;;;;;;;;13.90;95.20;;;;;;5163196;27;19923;-66
2022/01/23 15:32:37;;;;;;;;;;;13.90;95.30;;;;;;5162626;27;19930;-66
2022/01/23 15:35:03;;;;;;;;;;;13.80;95.20;;;;;;5164441;27;19931;-66
2022/01/23 15:37:29;;;;;;;;;;;13.80;95.30;;;;;;5162273;27;20384;-66
2022/01/23 15:39:54;;;;;;;;;;;13.70;95.20;;;;;;5165675;27;19923;-66
2022/01/23 15:42:20;;;;;;;;;;;13.70;95.20;;;;;;5168191;27;19967;-67
2022/01/23 15:44:46;;;;;;;;;;;13.70;95.20;;;;;;5165227;27;19923;-65
2022/01/23 15:47:11;;;;;;;;;;;13.80;95.30;;;;;;5160079;27;19923;-66
2022/01/23 15:49:37;;;;;;;;;;;13.70;95.30;;;;;;5159736;27;19923;-66
2022/01/23 15:52:03;;;;;;;;;;;13.70;95.30;;;;;;5165304;27;19927;-66
2022/01/23 15:54:29;;;;;;;;;;;13.70;95.30;;;;;;5169494;27;19923;-66
2022/01/23 15:56:55;;;;;;;;;;;13.90;95.40;;;;;;5164667;27;19923;-66
2022/01/23 15:59:21;;;;;;;;;;;13.50;95.30;;;;;;5171281;27;19930;-66
2022/01/23 16:01:49;;;;;;;;;;;13.80;95.30;;;;;;5161555;27;20286;-66
2022/01/23 16:04:14;;;;;;;;;;;13.80;95.30;;;;;;5167799;27;19923;-66
2022/01/23 16:06:40;;;;;;;;;;;13.90;95.40;;;;;;5174658;27;19930;-66
2022/01/23 16:09:06;;;;;;;;;;;13.80;95.40;;;;;;5165755;27;19946;-66
2022/01/23 16:11:31;;;;;;;;;;;13.80;95.40;;;;;;5162420;27;19927;-66
2022/01/23 16:13:57;;;;;;;;;;;13.90;95.50;;;;;;5163545;27;19923;-66
2022/01/23 16:16:23;;;;;;;;;;;13.70;95.40;;;;;;5159299;27;19975;-66
2022/01/23 16:18:48;;;;;;;;;;;14.00;95.50;;;;;;5170127;27;20311;-65
2022/01/23 16:21:14;;;;;;;;;;;;;;;;;;5164302;27;20287;-63
2022/01/23 16:23:41;;;;;;;;;;;13.80;95.40;;;;;;5160570;27;19924;-63
2022/01/23 16:26:06;;;;;;;;;;;13.70;95.40;;;;;;5163549;27;19922;-63
2022/01/23 16:28:32;;;;;;;;;;;13.80;95.40;;;;;;5160777;27;19927;-64
2022/01/23 16:30:58;;;;;;;;;;;;;;;;;;5160902;27;19920;-61
2022/01/23 16:33:24;;;;;;;;;;;13.80;95.40;;;;;;5163556;27;19931;-64
2022/01/23 16:35:50;;;;;;;;;;;13.60;95.40;;;;;;5169777;27;19947;-63
2022/01/23 16:38:15;;;;;;;;;;;13.80;95.40;;;;;;5159232;27;20380;-66
2022/01/23 16:40:41;;;;;;;;;;;13.50;95.30;;;;;;5166014;27;19922;-62
2022/01/23 16:43:07;;;;;;;;;;;13.80;95.40;;;;;;5164585;27;19923;-63
2022/01/23 16:45:34;;;;;;;;;;;13.60;95.40;;;;;;5163402;27;19930;-62
2022/01/23 16:47:59;;;;;;;;;;;14.00;95.50;;;;;;5164419;27;19930;-66
2022/01/23 16:50:25;;;;;;;;;;;13.60;95.30;;;;;;5164891;27;20296;-66
2022/01/23 16:52:52;;;;;;;;;;;13.70;95.40;;;;;;5162287;27;20100;-65
2022/01/23 16:55:18;;;;;;;;;;;13.80;95.40;;;;;;5164134;27;19938;-66
2022/01/23 16:57:43;;;;;;;;;;;13.70;95.40;;;;;;5145002;27;20280;-64
2022/01/23 17:00:11;;;;;;;;;;;13.70;95.40;;;;;;5170416;27;19923;-60
2022/01/23 17:02:37;;;;;;;;;;;13.70;95.40;;;;;;5159502;27;19972;-66
2022/01/23 17:05:02;;;;;;;;;;;13.70;95.40;;;;;;5169939;27;19927;-67
2022/01/23 17:07:28;;;;;;;;;;;13.70;95.40;;;;;;5172554;27;19946;-66
2022/01/23 17:09:54;;;;;;;;;;;13.70;95.40;;;;;;5173316;27;19929;-66
2022/01/23 17:12:19;;;;;;;;;;;13.70;95.40;;;;;;5171536;27;20018;-66
2022/01/23 17:14:45;;;;;;;;;;;13.90;95.40;;;;;;5166638;27;19929;-66
2022/01/23 17:17:10;;;;;;;;;;;13.70;95.40;;;;;;5154267;27;19922;-65
2022/01/23 17:19:36;;;;;;;;;;;13.60;95.30;;;;;;5173802;27;19945;-66
2022/01/23 17:22:02;;;;;;;;;;;13.70;95.30;;;;;;5168416;27;19927;-67
2022/01/23 17:24:28;;;;;;;;;;;13.70;95.30;;;;;;5164633;27;19946;-67
2022/01/23 17:26:53;;;;;;;;;;;13.80;95.50;;;;;;5141355;27;19942;-66
2022/01/23 17:29:19;;;;;;;;;;;;;;;;;;5148793;27;20288;-66
2022/01/23 17:31:48;;;;;;;;;;;13.80;95.60;;;;;;5153949;27;19924;-66
2022/01/23 17:34:14;;;;;;;;;;;13.90;95.70;;;;;;5146060;27;19946;-60
2022/01/23 17:36:40;;;;;;;;;;;13.80;95.60;;;;;;5145229;27;19927;-61
2022/01/23 17:39:05;;;;;;;;;;;13.80;95.70;;;;;;5152251;27;19923;-61
2022/01/23 17:41:31;;;;;;;;;;;13.80;95.80;;;;;;5138666;27;19927;-61
2022/01/23 17:43:57;;;;;;;;;;;13.80;95.80;;;;;;5145739;27;19924;-63
2022/01/23 17:46:25;;;;;;;;;;;;;;;;;;5148864;27;19927;-61
2022/01/23 17:49:03;;;;;;;;;;;13.90;95.80;;;;;;5150715;27;19924;-61
2022/01/23 17:51:29;;;;;;;;;;;13.70;95.70;;;;;;5143853;27;20269;-62
2022/01/23 17:53:55;;;;;;;;;;;13.70;95.70;;;;;;5140887;27;20031;-62
2022/01/23 17:56:23;;;;;;;;;;;13.80;95.70;;;;;;5152179;27;19923;-64